sensor_id;sensor_type;location;lat;lon;timestamp;temperature;humidity
8463;DHT22;4268;52.506;13.462;2022-09-09T00:02:18;15.20;99.90
8463;DHT22;4268;52.506;13.462;2022-09-09T00:08:09;15.30;99.90
8463;DHT22;4268;52.506;13.462;2022-09-09T00:10:37;15.30;99.90
8463;DHT22;4268;52.506;13.462;2022-09-09T00:13:22;15.30;99.90
8463;DHT22;4268;52.506;13.462;2022-09-09T00:21:15;15.20;99.90
8463;DHT22;4268;52.506;13.462;2022-09-09T00:23:53;15.20;99.90
8463;DHT22;4268;52.506;13.462;2022-09-09T00:28:54;15.20;99.90
8463;DHT22;4268;52.506;13.462;2022-09-09T00:31:27;15.10;99.90
8463;DHT22;4268;52.506;13.462;2022-09-09T00:33:55;15.20;99.90
8463;DHT22;4268;52.506;13.462;2022-09-09T00:36:25;15.10;99.90
8463;DHT22;4268;52.506;13.462;2022-09-09T00:38:56;15.10;99.90
8463;DHT22;4268;52.506;13.462;2022-09-09T00:47:29;15.00;99.90
8463;DHT22;4268;52.506;13.462;2022-09-09T00:55:19;15.00;99.90
8463;DHT22;4268;52.506;13.462;2022-09-09T00:57:50;15.00;99.90
8463;DHT22;4268;52.506;13.462;2022-09-09T01:00:21;14.90;99.90
8463;DHT22;4268;52.506;13.462;2022-09-09T01:08:05;14.90;99.90
8463;DHT22;4268;52.506;13.462;2022-09-09T01:10:41;14.90;99.90
8463;DHT22;4268;52.506;13.462;2022-09-09T01:13:27;14.90;99.90
8463;DHT22;4268;52.506;13.462;2022-09-09T01:15:58;14.80;99.90
8463;DHT22;4268;52.506;13.462;2022-09-09T01:18:37;14.80;99.90
8463;DHT22;4268;52.506;13.462;2022-09-09T01:23:54;14.70;99.90
8463;DHT22;4268;52.506;13.462;2022-09-09T01:26:35;14.80;99.90
8463;DHT22;4268;52.506;13.462;2022-09-09T01:29:02;14.70;99.90
8463;DHT22;4268;52.506;13.462;2022-09-09T01:31:52;14.80;99.90
8463;DHT22;4268;52.506;13.462;2022-09-09T01:34:19;14.70;99.90
8463;DHT22;4268;52.506;13.462;2022-09-09T01:39:30;14.70;99.90
8463;DHT22;4268;52.506;13.462;2022-09-09T01:41:56;14.70;99.90
8463;DHT22;4268;52.506;13.462;2022-09-09T01:44:22;14.70;99.90
8463;DHT22;4268;52.506;13.462;2022-09-09T01:46:49;14.60;99.90
8463;DHT22;4268;52.506;13.462;2022-09-09T01:49:16;14.60;99.90
8463;DHT22;4268;52.506;13.462;2022-09-09T01:51:43;14.60;99.90
8463;DHT22;4268;52.506;13.462;2022-09-09T01:54:10;14.60;99.90
8463;DHT22;4268;52.506;13.462;2022-09-09T01:59:30;14.50;99.90
8463;DHT22;4268;52.506;13.462;2022-09-09T02:02:26;14.50;99.90
8463;DHT22;4268;52.506;13.462;2022-09-09T02:05:11;14.50;99.90
8463;DHT22;4268;52.506;13.462;2022-09-09T02:07:42;14.50;99.90
8463;DHT22;4268;52.506;13.462;2022-09-09T02:10:21;14.50;99.90
8463;DHT22;4268;52.506;13.462;2022-09-09T02:12:55;14.50;99.90
8463;DHT22;4268;52.506;13.462;2022-09-09T02:17:57;14.40;99.90
8463;DHT22;4268;52.506;13.462;2022-09-09T02:20:24;14.40;99.90
8463;DHT22;4268;52.506;13.462;2022-09-09T02:22:53;14.40;99.90
8463;DHT22;4268;52.506;13.462;2022-09-09T02:25:21;14.40;99.90
8463;DHT22;4268;52.506;13.462;2022-09-09T02:27:50;14.40;99.90
8463;DHT22;4268;52.506;13.462;2022-09-09T02:30:17;14.40;99.90
8463;DHT22;4268;52.506;13.462;2022-09-09T02:32:44;14.40;99.90
8463;DHT22;4268;52.506;13.462;2022-09-09T02:35:13;14.40;99.90
8463;DHT22;4268;52.506;13.462;2022-09-09T02:37:42;14.40;99.90
8463;DHT22;4268;52.506;13.462;2022-09-09T02:40:10;14.40;99.90
8463;DHT22;4268;52.506;13.462;2022-09-09T02:42:44;14.40;99.90
8463;DHT22;4268;52.506;13.462;2022-09-09T02:45:12;14.30;99.90
8463;DHT22;4268;52.506;13.462;2022-09-09T02:47:50;14.30;99.90
8463;DHT22;4268;52.506;13.462;2022-09-09T02:50:29;14.30;99.90
8463;DHT22;4268;52.506;13.462;2022-09-09T02:58:07;14.30;99.90
8463;DHT22;4268;52.506;13.462;2022-09-09T03:00:33;14.30;99.90
8463;DHT22;4268;52.506;13.462;2022-09-09T03:03:05;14.20;99.90
8463;DHT22;4268;52.506;13.462;2022-09-09T03:05:31;14.20;99.90
8463;DHT22;4268;52.506;13.462;2022-09-09T03:07:57;14.20;99.90
8463;DHT22;4268;52.506;13.462;2022-09-09T03:10:23;14.20;99.90
8463;DHT22;4268;52.506;13.462;2022-09-09T03:12:48;14.20;99.90
8463;DHT22;4268;52.506;13.462;2022-09-09T03:15:14;14.20;99.90
8463;DHT22;4268;52.506;13.462;2022-09-09T03:17:40;14.20;99.90
8463;DHT22;4268;52.506;13.462;2022-09-09T03:20:06;14.20;99.90
8463;DHT22;4268;52.506;13.462;2022-09-09T03:22:32;14.10;99.90
8463;DHT22;4268;52.506;13.462;2022-09-09T03:24:58;14.20;99.90
8463;DHT22;4268;52.506;13.462;2022-09-09T03:27:23;14.10;99.90
8463;DHT22;4268;52.506;13.462;2022-09-09T03:29:49;14.10;99.90
8463;DHT22;4268;52.506;13.462;2022-09-09T03:32:18;14.10;99.90
8463;DHT22;4268;52.506;13.462;2022-09-09T03:34:45;14.10;99.90
8463;DHT22;4268;52.506;13.462;2022-09-09T03:37:12;14.10;99.90
8463;DHT22;4268;52.506;13.462;2022-09-09T03:39:38;14.10;99.90
8463;DHT22;4268;52.506;13.462;2022-09-09T03:42:03;14.10;99.90
8463;DHT22;4268;52.506;13.462;2022-09-09T03:44:29;14.00;99.90
8463;DHT22;4268;52.506;13.462;2022-09-09T03:46:55;14.10;99.90
8463;DHT22;4268;52.506;13.462;2022-09-09T03:49:21;14.00;99.90
8463;DHT22;4268;52.506;13.462;2022-09-09T03:51:47;14.10;99.90
8463;DHT22;4268;52.506;13.462;2022-09-09T03:54:12;14.10;99.90
8463;DHT22;4268;52.506;13.462;2022-09-09T03:56:38;14.10;99.90
8463;DHT22;4268;52.506;13.462;2022-09-09T03:59:04;14.00;99.90
8463;DHT22;4268;52.506;13.462;2022-09-09T04:01:29;14.10;99.90
8463;DHT22;4268;52.506;13.462;2022-09-09T04:03:55;14.00;99.90
8463;DHT22;4268;52.506;13.462;2022-09-09T04:06:23;14.00;99.90
8463;DHT22;4268;52.506;13.462;2022-09-09T04:08:48;14.00;99.90
8463;DHT22;4268;52.506;13.462;2022-09-09T04:11:15;14.00;99.90
8463;DHT22;4268;52.506;13.462;2022-09-09T04:13:41;14.00;99.90
8463;DHT22;4268;52.506;13.462;2022-09-09T04:16:08;14.00;99.90
8463;DHT22;4268;52.506;13.462;2022-09-09T04:18:34;14.00;99.90
8463;DHT22;4268;52.506;13.462;2022-09-09T04:21:00;14.00;99.90
8463;DHT22;4268;52.506;13.462;2022-09-09T04:23:27;14.60;99.90
8463;DHT22;4268;52.506;13.462;2022-09-09T04:25:55;14.00;99.90
8463;DHT22;4268;52.506;13.462;2022-09-09T04:28:23;14.50;99.90
8463;DHT22;4268;52.506;13.462;2022-09-09T04:30:50;14.00;99.90
8463;DHT22;4268;52.506;13.462;2022-09-09T04:33:16;14.30;99.90
8463;DHT22;4268;52.506;13.462;2022-09-09T04:35:47;14.00;99.90
8463;DHT22;4268;52.506;13.462;2022-09-09T04:38:13;14.00;99.90
8463;DHT22;4268;52.506;13.462;2022-09-09T04:40:41;14.00;99.90
8463;DHT22;4268;52.506;13.462;2022-09-09T04:43:08;14.10;99.90
8463;DHT22;4268;52.506;13.462;2022-09-09T04:45:34;13.90;99.90
8463;DHT22;4268;52.506;13.462;2022-09-09T04:48:00;14.10;99.90
8463;DHT22;4268;52.506;13.462;2022-09-09T04:50:26;14.10;99.90
8463;DHT22;4268;52.506;13.462;2022-09-09T04:52:51;13.90;99.90
8463;DHT22;4268;52.506;13.462;2022-09-09T04:55:17;14.10;99.90
8463;DHT22;4268;52.506;13.462;2022-09-09T04:57:42;14.10;99.90
8463;DHT22;4268;52.506;13.462;2022-09-09T05:00:09;14.00;99.90
8463;DHT22;4268;52.506;13.462;2022-09-09T05:02:39;14.20;99.90
8463;DHT22;4268;52.506;13.462;2022-09-09T05:05:05;14.10;99.90
8463;DHT22;4268;52.506;13.462;2022-09-09T05:07:31;14.30;99.90
8463;DHT22;4268;52.506;13.462;2022-09-09T05:09:57;14.40;99.90
8463;DHT22;4268;52.506;13.462;2022-09-09T05:12:23;14.30;99.90
8463;DHT22;4268;52.506;13.462;2022-09-09T05:14:52;14.40;99.90
8463;DHT22;4268;52.506;13.462;2022-09-09T05:17:18;14.50;99.90
8463;DHT22;4268;52.506;13.462;2022-09-09T05:19:43;14.40;99.90
8463;DHT22;4268;52.506;13.462;2022-09-09T05:22:09;14.50;99.90
8463;DHT22;4268;52.506;13.462;2022-09-09T05:24:36;14.20;99.90
8463;DHT22;4268;52.506;13.462;2022-09-09T05:27:02;14.60;99.90
8463;DHT22;4268;52.506;13.462;2022-09-09T05:29:27;14.60;99.90
8463;DHT22;4268;52.506;13.462;2022-09-09T05:31:53;14.70;99.90
8463;DHT22;4268;52.506;13.462;2022-09-09T05:34:18;14.80;99.90
8463;DHT22;4268;52.506;13.462;2022-09-09T05:36:46;14.80;99.90
8463;DHT22;4268;52.506;13.462;2022-09-09T05:39:12;14.90;99.90
8463;DHT22;4268;52.506;13.462;2022-09-09T05:41:37;14.90;99.90
8463;DHT22;4268;52.506;13.462;2022-09-09T05:44:03;13.70;99.90
8463;DHT22;4268;52.506;13.462;2022-09-09T05:46:28;15.00;99.90
8463;DHT22;4268;52.506;13.462;2022-09-09T05:48:55;15.00;99.90
8463;DHT22;4268;52.506;13.462;2022-09-09T05:51:23;15.10;99.90
8463;DHT22;4268;52.506;13.462;2022-09-09T05:53:49;15.10;99.90
8463;DHT22;4268;52.506;13.462;2022-09-09T05:56:18;15.00;99.90
8463;DHT22;4268;52.506;13.462;2022-09-09T05:58:45;15.20;99.90
8463;DHT22;4268;52.506;13.462;2022-09-09T06:01:24;15.40;99.90
8463;DHT22;4268;52.506;13.462;2022-09-09T06:03:50;15.30;99.90
8463;DHT22;4268;52.506;13.462;2022-09-09T06:06:19;15.30;99.90
8463;DHT22;4268;52.506;13.462;2022-09-09T06:08:46;15.20;99.90
8463;DHT22;4268;52.506;13.462;2022-09-09T06:11:15;15.40;99.90
8463;DHT22;4268;52.506;13.462;2022-09-09T06:13:41;15.00;99.90
8463;DHT22;4268;52.506;13.462;2022-09-09T06:16:15;15.60;99.90
8463;DHT22;4268;52.506;13.462;2022-09-09T06:18:41;15.60;99.90
8463;DHT22;4268;52.506;13.462;2022-09-09T06:21:15;15.80;99.90
8463;DHT22;4268;52.506;13.462;2022-09-09T06:23:41;16.00;99.90
8463;DHT22;4268;52.506;13.462;2022-09-09T06:26:13;16.10;99.90
8463;DHT22;4268;52.506;13.462;2022-09-09T06:28:39;17.40;99.90
8463;DHT22;4268;52.506;13.462;2022-09-09T06:31:07;18.10;99.90
8463;DHT22;4268;52.506;13.462;2022-09-09T06:33:35;18.80;99.90
8463;DHT22;4268;52.506;13.462;2022-09-09T06:36:02;20.00;99.90
8463;DHT22;4268;52.506;13.462;2022-09-09T06:38:29;21.80;99.90
8463;DHT22;4268;52.506;13.462;2022-09-09T06:40:55;23.60;99.90
8463;DHT22;4268;52.506;13.462;2022-09-09T06:43:22;25.30;99.90
8463;DHT22;4268;52.506;13.462;2022-09-09T06:45:55;25.90;98.70
8463;DHT22;4268;52.506;13.462;2022-09-09T06:48:21;25.00;97.50
8463;DHT22;4268;52.506;13.462;2022-09-09T06:50:47;23.70;98.70
8463;DHT22;4268;52.506;13.462;2022-09-09T06:53:15;23.50;99.80
8463;DHT22;4268;52.506;13.462;2022-09-09T06:55:41;23.60;99.10
8463;DHT22;4268;52.506;13.462;2022-09-09T06:58:09;23.10;99.50
8463;DHT22;4268;52.506;13.462;2022-09-09T07:00:35;23.40;99.90
8463;DHT22;4268;52.506;13.462;2022-09-09T07:03:03;24.10;98.90
8463;DHT22;4268;52.506;13.462;2022-09-09T07:05:28;25.40;97.30
8463;DHT22;4268;52.506;13.462;2022-09-09T07:07:54;26.80;94.50
8463;DHT22;4268;52.506;13.462;2022-09-09T07:10:19;27.50;93.10
8463;DHT22;4268;52.506;13.462;2022-09-09T07:12:45;28.40;90.70
8463;DHT22;4268;52.506;13.462;2022-09-09T07:15:15;28.80;90.10
8463;DHT22;4268;52.506;13.462;2022-09-09T07:17:40;29.30;86.40
8463;DHT22;4268;52.506;13.462;2022-09-09T07:20:06;29.40;83.00
8463;DHT22;4268;52.506;13.462;2022-09-09T07:22:32;29.80;81.60
8463;DHT22;4268;52.506;13.462;2022-09-09T07:24:58;29.30;81.60
8463;DHT22;4268;52.506;13.462;2022-09-09T07:27:23;29.60;80.90
8463;DHT22;4268;52.506;13.462;2022-09-09T07:29:49;29.30;80.20
8463;DHT22;4268;52.506;13.462;2022-09-09T07:32:14;28.90;81.00
8463;DHT22;4268;52.506;13.462;2022-09-09T07:34:40;28.50;82.80
8463;DHT22;4268;52.506;13.462;2022-09-09T07:37:06;28.40;84.50
8463;DHT22;4268;52.506;13.462;2022-09-09T07:39:31;28.90;82.50
8463;DHT22;4268;52.506;13.462;2022-09-09T07:41:57;29.20;80.50
8463;DHT22;4268;52.506;13.462;2022-09-09T07:44:24;29.30;79.00
8463;DHT22;4268;52.506;13.462;2022-09-09T07:46:50;29.70;78.30
8463;DHT22;4268;52.506;13.462;2022-09-09T07:49:16;30.00;78.20
8463;DHT22;4268;52.506;13.462;2022-09-09T07:51:45;30.10;76.00
8463;DHT22;4268;52.506;13.462;2022-09-09T07:54:12;30.40;76.30
8463;DHT22;4268;52.506;13.462;2022-09-09T07:56:39;30.30;75.10
8463;DHT22;4268;52.506;13.462;2022-09-09T07:59:05;30.50;75.50
8463;DHT22;4268;52.506;13.462;2022-09-09T08:01:37;30.50;74.60
8463;DHT22;4268;52.506;13.462;2022-09-09T08:04:09;30.30;75.30
8463;DHT22;4268;52.506;13.462;2022-09-09T08:06:37;30.10;75.40
8463;DHT22;4268;52.506;13.462;2022-09-09T08:09:04;29.50;76.10
8463;DHT22;4268;52.506;13.462;2022-09-09T08:11:31;29.60;76.40
8463;DHT22;4268;52.506;13.462;2022-09-09T08:13:58;29.00;77.80
8463;DHT22;4268;52.506;13.462;2022-09-09T08:16:27;27.50;79.30
8463;DHT22;4268;52.506;13.462;2022-09-09T08:18:53;26.90;82.70
8463;DHT22;4268;52.506;13.462;2022-09-09T08:21:22;25.80;85.50
8463;DHT22;4268;52.506;13.462;2022-09-09T08:23:54;25.20;88.60
8463;DHT22;4268;52.506;13.462;2022-09-09T08:26:32;24.50;91.00
8463;DHT22;4268;52.506;13.462;2022-09-09T08:29:00;23.70;91.90
8463;DHT22;4268;52.506;13.462;2022-09-09T08:31:34;23.10;92.90
8463;DHT22;4268;52.506;13.462;2022-09-09T08:34:01;22.50;94.00
8463;DHT22;4268;52.506;13.462;2022-09-09T08:36:34;21.80;95.70
8463;DHT22;4268;52.506;13.462;2022-09-09T08:39:01;21.40;96.90
8463;DHT22;4268;52.506;13.462;2022-09-09T08:47:30;21.10;99.30
8463;DHT22;4268;52.506;13.462;2022-09-09T08:50:26;20.90;99.70
8463;DHT22;4268;52.506;13.462;2022-09-09T08:58:28;20.60;99.90
8463;DHT22;4268;52.506;13.462;2022-09-09T09:04:37;20.70;99.90
8463;DHT22;4268;52.506;13.462;2022-09-09T09:07:18;20.80;99.90
8463;DHT22;4268;52.506;13.462;2022-09-09T09:12:23;21.10;99.90
8463;DHT22;4268;52.506;13.462;2022-09-09T09:14:50;21.30;99.90
8463;DHT22;4268;52.506;13.462;2022-09-09T09:17:20;21.50;99.90
8463;DHT22;4268;52.506;13.462;2022-09-09T09:19:48;21.90;99.90
8463;DHT22;4268;52.506;13.462;2022-09-09T09:22:22;22.10;99.90
8463;DHT22;4268;52.506;13.462;2022-09-09T09:24:55;22.40;99.90
8463;DHT22;4268;52.506;13.462;2022-09-09T09:27:34;22.50;99.90
8463;DHT22;4268;52.506;13.462;2022-09-09T09:30:12;22.60;99.80
8463;DHT22;4268;52.506;13.462;2022-09-09T09:32:41;22.70;99.30
8463;DHT22;4268;52.506;13.462;2022-09-09T09:35:12;22.80;99.20
8463;DHT22;4268;52.506;13.462;2022-09-09T09:37:40;22.80;99.40
8463;DHT22;4268;52.506;13.462;2022-09-09T09:42:49;22.70;99.60
8463;DHT22;4268;52.506;13.462;2022-09-09T09:45:35;22.40;99.70
8463;DHT22;4268;52.506;13.462;2022-09-09T09:48:13;22.20;99.90
8463;DHT22;4268;52.506;13.462;2022-09-09T09:50:54;22.10;99.90
8463;DHT22;4268;52.506;13.462;2022-09-09T09:53:29;22.10;99.90
8463;DHT22;4268;52.506;13.462;2022-09-09T09:56:05;21.90;99.90
8463;DHT22;4268;52.506;13.462;2022-09-09T09:58:39;21.80;99.90
8463;DHT22;4268;52.506;13.462;2022-09-09T10:01:29;21.70;99.90
8463;DHT22;4268;52.506;13.462;2022-09-09T10:04:13;21.70;99.90
8463;DHT22;4268;52.506;13.462;2022-09-09T10:06:40;21.60;99.90
8463;DHT22;4268;52.506;13.462;2022-09-09T10:09:32;21.70;99.90
8463;DHT22;4268;52.506;13.462;2022-09-09T10:17:31;21.50;99.90
8463;DHT22;4268;52.506;13.462;2022-09-09T10:26:12;21.50;99.90
8463;DHT22;4268;52.506;13.462;2022-09-09T10:34:39;21.80;99.90
8463;DHT22;4268;52.506;13.462;2022-09-09T10:37:34;21.80;99.90
8463;DHT22;4268;52.506;13.462;2022-09-09T10:40:26;21.80;99.90
8463;DHT22;4268;52.506;13.462;2022-09-09T10:42:59;21.70;99.90
8463;DHT22;4268;52.506;13.462;2022-09-09T10:45:49;21.60;99.90
8463;DHT22;4268;52.506;13.462;2022-09-09T10:48:30;21.40;99.90
8463;DHT22;4268;52.506;13.462;2022-09-09T10:51:18;21.40;99.90
8463;DHT22;4268;52.506;13.462;2022-09-09T10:56:33;21.50;99.90
8463;DHT22;4268;52.506;13.462;2022-09-09T10:59:04;21.60;99.90
8463;DHT22;4268;52.506;13.462;2022-09-09T11:01:40;21.90;99.90
8463;DHT22;4268;52.506;13.462;2022-09-09T11:06:52;22.40;99.90
8463;DHT22;4268;52.506;13.462;2022-09-09T11:09:22;22.60;99.90
8463;DHT22;4268;52.506;13.462;2022-09-09T11:11:56;22.70;99.90
8463;DHT22;4268;52.506;13.462;2022-09-09T11:14:48;22.70;99.90
8463;DHT22;4268;52.506;13.462;2022-09-09T11:17:31;22.70;99.90
8463;DHT22;4268;52.506;13.462;2022-09-09T11:19:58;22.50;99.90
8463;DHT22;4268;52.506;13.462;2022-09-09T11:22:35;22.30;99.90
8463;DHT22;4268;52.506;13.462;2022-09-09T11:31:11;22.40;99.90
8463;DHT22;4268;52.506;13.462;2022-09-09T11:44:39;22.70;99.80
8463;DHT22;4268;52.506;13.462;2022-09-09T11:49:49;23.00;99.20
8463;DHT22;4268;52.506;13.462;2022-09-09T11:55:28;23.50;98.30
8463;DHT22;4268;52.506;13.462;2022-09-09T11:58:14;23.40;98.10
8463;DHT22;4268;52.506;13.462;2022-09-09T12:06:26;23.30;98.20
8463;DHT22;4268;52.506;13.462;2022-09-09T12:09:06;23.20;98.30
8463;DHT22;4268;52.506;13.462;2022-09-09T12:11:33;23.10;98.50
8463;DHT22;4268;52.506;13.462;2022-09-09T12:14:00;23.20;98.60
8463;DHT22;4268;52.506;13.462;2022-09-09T12:16:34;23.30;98.60
8463;DHT22;4268;52.506;13.462;2022-09-09T12:19:05;23.40;98.50
8463;DHT22;4268;52.506;13.462;2022-09-09T12:24:40;23.30;97.60
8463;DHT22;4268;52.506;13.462;2022-09-09T12:27:26;23.10;97.10
8463;DHT22;4268;52.506;13.462;2022-09-09T12:32:25;22.90;97.20
8463;DHT22;4268;52.506;13.462;2022-09-09T12:37:53;22.80;97.60
8463;DHT22;4268;52.506;13.462;2022-09-09T12:40:24;22.60;97.50
8463;DHT22;4268;52.506;13.462;2022-09-09T12:42:50;22.60;97.70
8463;DHT22;4268;52.506;13.462;2022-09-09T12:45:22;22.60;97.70
8463;DHT22;4268;52.506;13.462;2022-09-09T12:47:56;22.50;97.80
8463;DHT22;4268;52.506;13.462;2022-09-09T12:50:24;22.50;97.80
8463;DHT22;4268;52.506;13.462;2022-09-09T12:52:57;22.60;97.80
8463;DHT22;4268;52.506;13.462;2022-09-09T12:55:31;22.60;97.80
8463;DHT22;4268;52.506;13.462;2022-09-09T12:57:59;22.70;98.00
8463;DHT22;4268;52.506;13.462;2022-09-09T13:00:26;22.70;97.70
8463;DHT22;4268;52.506;13.462;2022-09-09T13:02:57;22.70;97.30
8463;DHT22;4268;52.506;13.462;2022-09-09T13:05:28;22.80;97.30
8463;DHT22;4268;52.506;13.462;2022-09-09T13:08:04;22.90;97.00
8463;DHT22;4268;52.506;13.462;2022-09-09T13:10:33;22.90;96.80
8463;DHT22;4268;52.506;13.462;2022-09-09T13:12:59;23.00;96.60
8463;DHT22;4268;52.506;13.462;2022-09-09T13:15:26;23.00;95.70
8463;DHT22;4268;52.506;13.462;2022-09-09T13:17:56;23.00;95.80
8463;DHT22;4268;52.506;13.462;2022-09-09T13:20:23;23.00;95.70
8463;DHT22;4268;52.506;13.462;2022-09-09T13:22:50;23.00;95.10
8463;DHT22;4268;52.506;13.462;2022-09-09T13:25:19;23.10;95.00
8463;DHT22;4268;52.506;13.462;2022-09-09T13:30:29;23.00;94.40
8463;DHT22;4268;52.506;13.462;2022-09-09T13:35:32;23.00;94.80
8463;DHT22;4268;52.506;13.462;2022-09-09T13:38:05;23.10;94.90
8463;DHT22;4268;52.506;13.462;2022-09-09T13:40:31;23.10;94.80
8463;DHT22;4268;52.506;13.462;2022-09-09T13:42:57;23.20;94.40
8463;DHT22;4268;52.506;13.462;2022-09-09T13:45:25;23.30;94.20
8463;DHT22;4268;52.506;13.462;2022-09-09T13:47:54;23.40;94.00
8463;DHT22;4268;52.506;13.462;2022-09-09T13:50:30;23.20;93.60
8463;DHT22;4268;52.506;13.462;2022-09-09T13:52:57;23.30;93.90
8463;DHT22;4268;52.506;13.462;2022-09-09T13:55:25;23.40;94.00
8463;DHT22;4268;52.506;13.462;2022-09-09T13:57:56;23.50;93.60
8463;DHT22;4268;52.506;13.462;2022-09-09T14:00:23;23.60;93.70
8463;DHT22;4268;52.506;13.462;2022-09-09T14:02:50;23.60;93.50
8463;DHT22;4268;52.506;13.462;2022-09-09T14:05:16;23.70;93.90
8463;DHT22;4268;52.506;13.462;2022-09-09T14:07:42;23.60;94.00
8463;DHT22;4268;52.506;13.462;2022-09-09T14:10:09;23.50;94.20
8463;DHT22;4268;52.506;13.462;2022-09-09T14:12:34;23.30;94.10
8463;DHT22;4268;52.506;13.462;2022-09-09T14:15:02;23.20;94.30
8463;DHT22;4268;52.506;13.462;2022-09-09T14:17:28;23.10;94.50
8463;DHT22;4268;52.506;13.462;2022-09-09T14:19:56;23.00;94.80
8463;DHT22;4268;52.506;13.462;2022-09-09T14:22:22;23.00;94.80
8463;DHT22;4268;52.506;13.462;2022-09-09T14:24:48;23.00;94.70
8463;DHT22;4268;52.506;13.462;2022-09-09T14:27:14;23.20;95.00
8463;DHT22;4268;52.506;13.462;2022-09-09T14:29:39;23.40;96.10
8463;DHT22;4268;52.506;13.462;2022-09-09T14:32:05;23.60;95.80
8463;DHT22;4268;52.506;13.462;2022-09-09T14:34:31;23.60;95.70
8463;DHT22;4268;52.506;13.462;2022-09-09T14:36:58;23.60;96.10
8463;DHT22;4268;52.506;13.462;2022-09-09T14:39:24;23.60;96.50
8463;DHT22;4268;52.506;13.462;2022-09-09T14:41:49;23.60;96.50
8463;DHT22;4268;52.506;13.462;2022-09-09T14:44:15;23.60;95.60
8463;DHT22;4268;52.506;13.462;2022-09-09T14:46:41;23.50;95.40
8463;DHT22;4268;52.506;13.462;2022-09-09T14:49:08;23.50;95.70
8463;DHT22;4268;52.506;13.462;2022-09-09T14:51:36;23.40;95.80
8463;DHT22;4268;52.506;13.462;2022-09-09T14:54:02;23.40;95.80
8463;DHT22;4268;52.506;13.462;2022-09-09T14:56:30;23.20;95.90
8463;DHT22;4268;52.506;13.462;2022-09-09T14:58:58;23.00;96.20
8463;DHT22;4268;52.506;13.462;2022-09-09T15:01:24;22.90;96.20
8463;DHT22;4268;52.506;13.462;2022-09-09T15:04:03;22.70;96.50
8463;DHT22;4268;52.506;13.462;2022-09-09T15:06:32;22.60;96.20
8463;DHT22;4268;52.506;13.462;2022-09-09T15:08:58;22.60;96.50
8463;DHT22;4268;52.506;13.462;2022-09-09T15:11:27;22.50;96.60
8463;DHT22;4268;52.506;13.462;2022-09-09T15:13:53;22.60;96.80
8463;DHT22;4268;52.506;13.462;2022-09-09T15:16:21;22.60;96.70
8463;DHT22;4268;52.506;13.462;2022-09-09T15:18:51;22.50;96.30
8463;DHT22;4268;52.506;13.462;2022-09-09T15:21:20;22.60;96.30
8463;DHT22;4268;52.506;13.462;2022-09-09T15:23:46;22.70;95.40
8463;DHT22;4268;52.506;13.462;2022-09-09T15:26:13;22.70;93.20
8463;DHT22;4268;52.506;13.462;2022-09-09T15:28:39;22.80;91.60
8463;DHT22;4268;52.506;13.462;2022-09-09T15:31:20;23.00;92.00
8463;DHT22;4268;52.506;13.462;2022-09-09T15:33:54;23.10;91.90
8463;DHT22;4268;52.506;13.462;2022-09-09T15:36:27;23.20;91.80
8463;DHT22;4268;52.506;13.462;2022-09-09T15:38:54;23.00;91.70
8463;DHT22;4268;52.506;13.462;2022-09-09T15:41:21;23.20;92.30
8463;DHT22;4268;52.506;13.462;2022-09-09T15:43:48;23.10;92.90
8463;DHT22;4268;52.506;13.462;2022-09-09T15:48:54;22.80;93.90
8463;DHT22;4268;52.506;13.462;2022-09-09T15:51:20;22.60;94.10
8463;DHT22;4268;52.506;13.462;2022-09-09T15:53:46;22.50;94.60
8463;DHT22;4268;52.506;13.462;2022-09-09T15:56:12;22.40;94.70
8463;DHT22;4268;52.506;13.462;2022-09-09T15:58:37;22.30;94.40
8463;DHT22;4268;52.506;13.462;2022-09-09T16:01:04;22.20;94.60
8463;DHT22;4268;52.506;13.462;2022-09-09T16:03:34;22.10;94.00
8463;DHT22;4268;52.506;13.462;2022-09-09T16:05:59;22.00;94.30
8463;DHT22;4268;52.506;13.462;2022-09-09T16:08:41;22.00;94.30
8463;DHT22;4268;52.506;13.462;2022-09-09T16:11:11;22.00;94.30
8463;DHT22;4268;52.506;13.462;2022-09-09T16:13:39;22.10;94.40
8463;DHT22;4268;52.506;13.462;2022-09-09T16:16:06;22.10;94.10
8463;DHT22;4268;52.506;13.462;2022-09-09T16:18:36;22.10;93.80
8463;DHT22;4268;52.506;13.462;2022-09-09T16:21:02;22.10;93.90
8463;DHT22;4268;52.506;13.462;2022-09-09T16:23:30;22.20;93.80
8463;DHT22;4268;52.506;13.462;2022-09-09T16:25:56;22.10;93.80
8463;DHT22;4268;52.506;13.462;2022-09-09T16:28:22;22.10;93.90
8463;DHT22;4268;52.506;13.462;2022-09-09T16:30:48;22.10;94.00
8463;DHT22;4268;52.506;13.462;2022-09-09T16:33:13;22.00;94.40
8463;DHT22;4268;52.506;13.462;2022-09-09T16:35:41;21.90;94.10
8463;DHT22;4268;52.506;13.462;2022-09-09T16:38:07;21.90;94.30
8463;DHT22;4268;52.506;13.462;2022-09-09T16:40:36;21.80;94.50
8463;DHT22;4268;52.506;13.462;2022-09-09T16:43:04;21.70;95.00
8463;DHT22;4268;52.506;13.462;2022-09-09T16:45:31;21.70;95.50
8463;DHT22;4268;52.506;13.462;2022-09-09T16:47:58;21.60;95.50
8463;DHT22;4268;52.506;13.462;2022-09-09T16:50:23;21.60;95.80
8463;DHT22;4268;52.506;13.462;2022-09-09T16:52:50;21.50;96.00
8463;DHT22;4268;52.506;13.462;2022-09-09T16:55:16;21.50;96.40
8463;DHT22;4268;52.506;13.462;2022-09-09T16:57:41;21.40;97.20
8463;DHT22;4268;52.506;13.462;2022-09-09T17:00:07;21.40;98.20
8463;DHT22;4268;52.506;13.462;2022-09-09T17:02:33;21.30;98.40
8463;DHT22;4268;52.506;13.462;2022-09-09T17:04:59;21.20;98.90
8463;DHT22;4268;52.506;13.462;2022-09-09T17:07:25;21.10;99.80
8463;DHT22;4268;52.506;13.462;2022-09-09T17:09:50;21.10;99.90
8463;DHT22;4268;52.506;13.462;2022-09-09T17:12:16;21.10;99.90
8463;DHT22;4268;52.506;13.462;2022-09-09T17:14:42;21.00;99.90
8463;DHT22;4268;52.506;13.462;2022-09-09T17:17:08;21.00;99.90
8463;DHT22;4268;52.506;13.462;2022-09-09T17:19:34;20.90;99.90
8463;DHT22;4268;52.506;13.462;2022-09-09T17:21:59;20.90;99.90
8463;DHT22;4268;52.506;13.462;2022-09-09T17:24:26;20.70;99.90
8463;DHT22;4268;52.506;13.462;2022-09-09T17:26:54;20.60;99.90
8463;DHT22;4268;52.506;13.462;2022-09-09T17:29:21;20.40;99.90
8463;DHT22;4268;52.506;13.462;2022-09-09T17:31:47;20.30;99.90
8463;DHT22;4268;52.506;13.462;2022-09-09T17:34:12;20.20;99.90
8463;DHT22;4268;52.506;13.462;2022-09-09T17:36:38;20.10;99.90
8463;DHT22;4268;52.506;13.462;2022-09-09T17:39:05;20.00;99.90
8463;DHT22;4268;52.506;13.462;2022-09-09T17:41:34;19.90;99.90
8463;DHT22;4268;52.506;13.462;2022-09-09T17:44:00;19.80;99.80
8463;DHT22;4268;52.506;13.462;2022-09-09T17:46:29;19.80;99.90
8463;DHT22;4268;52.506;13.462;2022-09-09T17:48:58;19.80;99.90
8463;DHT22;4268;52.506;13.462;2022-09-09T17:51:25;19.70;99.90
8463;DHT22;4268;52.506;13.462;2022-09-09T17:53:55;19.70;99.70
8463;DHT22;4268;52.506;13.462;2022-09-09T17:56:22;19.60;99.70
8463;DHT22;4268;52.506;13.462;2022-09-09T17:58:52;19.50;99.60
8463;DHT22;4268;52.506;13.462;2022-09-09T18:01:23;19.30;99.60
8463;DHT22;4268;52.506;13.462;2022-09-09T18:03:50;19.20;99.90
8463;DHT22;4268;52.506;13.462;2022-09-09T18:06:18;19.10;99.90
8463;DHT22;4268;52.506;13.462;2022-09-09T18:08:49;19.00;99.90
8463;DHT22;4268;52.506;13.462;2022-09-09T18:11:16;18.90;99.90